Wautoma, WI (54982)

7:09 AM CDT on August 31, 2015 (GMT -0500)
Mt. Morris Township | | Change Station
CLOSE
Current Station
Personal Weather Station
Location: Wautoma, WI
Elevation: 912 ft
Nearby Weather Stations
Active Advisory: Special Statement

Elev 912 ft 44.08 °N, 89.21 °W | Updated 12 minutes ago

Overcast
Overcast
61.5 °F
Feels Like 61.5 °F
N
0.0
Wind Variable Wind from SSW

Today
High -- | Low -- °F
--% Chance of Precip.
Yesterday
High -- | Low -- °F
Precip. -- in
6:18 AM 7:35 PM
Waning Gibbous, 95% visible
Pressure 30.02 in
Visibility 3.0 miles
Clouds Overcast 100 ft
Dew Point 61 °F
Humidity 99%
Rainfall 0.00 in
Snow Depth Not available.
UV 0 out of 12
Pollen 10.20 out of 12
Air Quality Not available.
Flu Activity Not available.
METAR KY50 311056Z AUTO 00000KT 3SM BR OVC001 15/15 A3003 RMK AO2 TSNO T01500150 SLP164
Pressure 30.02 in
Visibility 3.0 miles
Clouds Overcast 100 ft
Dew Point 61 °F
Humidity 99%
Rainfall 0.00 in
Snow Depth Not available.
UV 0 out of 12
Pollen 10.20 out of 12
Air Quality Not available.
Flu Activity Not available.
METAR KY50 311056Z AUTO 00000KT 3SM BR OVC001 15/15 A3003 RMK AO2 TSNO T01500150 SLP164

10-Day Weather Forecast

×

Almanac

Astronomy

Aug. 31, 2015 Rise Set
Actual Time
Civil Twilight
Nautical Twilight
Astronomical Twilight
Moon
Length of Visible Light
Length of Day
Tomorrow will be .
, % of the Moon is Illuminated

Today's Extremes

State Highs State Lows

Community

WunderPhotos

Upload Photos

1,851,218 photos uploaded!

WunderBlogs® & News

Nearby

Air Quality

  Air Quality AQ Index Pollutant
Not available.

Snow Depth

Station Depth Elevation

Earthquake Activity

City Distance Mag. Time & Date
Minimum magnitude displayed is 2.5.

Coastal Water Temperatures

Place Temperature

Stations

Nearby Weather Stations

Station Location Temp. Windchill Dew Point Humidity Wind Precip. Elev Updated Type
                   
Special Statement
Statement as of 4:22 AM CDT on August 31, 2015

... Areas of dense fog across central and east central Wisconsin...

Moist air combined with light winds and clear skies has resulted
in dense fog across parts of central and east central Wisconsin
again early this morning. Visibilities will be less than a quarter
mile in some areas so drive with care and be ready to slow down
when driving in fog. It should start to dissipate an hour or so
after sunrise.

Rdm

422 am CDT Mon Aug 31 2015

... Areas of dense fog across central and east central Wisconsin...

Moist air combined with light winds and clear skies has resulted
in dense fog across parts of central and east central Wisconsin
again early this morning. Visibilities will be less than a quarter
mile in some areas so drive with care and be ready to slow down
when driving in fog. It should start to dissipate an hour or so
after sunrise.

Rdm